createdAt,value
2023-01-08T00:02:06.827Z,94.66
2023-01-08T00:04:43.553Z,94.66
2023-01-08T00:07:20.327Z,94.66
2023-01-08T00:09:57.352Z,94.65
2023-01-08T00:12:34.621Z,94.66
2023-01-08T00:15:13.412Z,94.70
2023-01-08T00:17:49.805Z,94.73
2023-01-08T00:20:27.272Z,94.76
2023-01-08T00:23:03.512Z,94.75
2023-01-08T00:25:40.199Z,94.73
2023-01-08T00:28:17.147Z,94.72
2023-01-08T00:30:53.910Z,94.71
2023-01-08T00:33:31.596Z,94.72
2023-01-08T00:36:15.879Z,94.75
2023-01-08T00:38:55.240Z,94.77
2023-01-08T00:41:31.771Z,94.81
2023-01-08T00:44:09.167Z,94.83
2023-01-08T00:46:45.752Z,94.86
2023-01-08T00:49:22.142Z,94.88
2023-01-08T00:51:58.542Z,94.86
2023-01-08T00:54:34.999Z,94.83
2023-01-08T00:57:11.445Z,94.82
2023-01-08T00:59:47.808Z,94.80
2023-01-08T01:02:25.238Z,94.79
2023-01-08T01:05:01.535Z,94.82
2023-01-08T01:07:38.444Z,94.85
2023-01-08T01:10:18.246Z,94.85
2023-01-08T01:12:54.719Z,94.82
2023-01-08T01:15:31.426Z,94.81
2023-01-08T01:18:08.736Z,94.84
2023-01-08T01:20:45.215Z,94.83
2023-01-08T01:23:21.960Z,94.84
2023-01-08T01:25:58.221Z,94.88
2023-01-08T01:28:34.585Z,94.89
2023-01-08T01:31:13.708Z,94.89
2023-01-08T01:33:51.316Z,94.90
2023-01-08T01:36:28.880Z,94.89
2023-01-08T01:39:05.791Z,94.88
2023-01-08T01:41:47.200Z,94.86
2023-01-08T01:44:46.141Z,94.84
2023-01-08T01:47:32.086Z,94.80
2023-01-08T01:50:16.733Z,94.77
2023-01-08T01:53:01.824Z,94.72
2023-01-08T01:55:43.857Z,94.68
2023-01-08T01:58:23.203Z,94.62
2023-01-08T02:01:03.890Z,94.58
2023-01-08T02:03:42.833Z,94.56
2023-01-08T02:06:38.629Z,94.54
2023-01-08T02:09:28.655Z,94.50
2023-01-08T02:12:18.787Z,94.50
2023-01-08T02:15:15.092Z,94.51
2023-01-08T02:18:04.776Z,94.51
2023-01-08T02:20:46.126Z,94.53
2023-01-08T02:23:40.996Z,94.54
2023-01-08T02:26:25.084Z,94.54
2023-01-08T02:29:08.422Z,94.55
2023-01-08T02:31:46.455Z,94.56
2023-01-08T02:34:22.823Z,94.57
2023-01-08T02:37:01.579Z,94.59
2023-01-08T02:39:58.077Z,94.59
2023-01-08T02:42:49.034Z,94.56
2023-01-08T02:45:44.613Z,94.54
2023-01-08T02:48:34.903Z,94.51
2023-01-08T02:51:20.560Z,94.50
2023-01-08T02:54:05.221Z,94.49
2023-01-08T02:56:55.284Z,94.48
2023-01-08T02:59:33.553Z,94.50
2023-01-08T03:02:10.474Z,94.50
2023-01-08T03:04:59.308Z,94.47
2023-01-08T03:07:36.866Z,94.42
2023-01-08T03:10:15.647Z,94.42
2023-01-08T03:13:00.623Z,94.40
2023-01-08T03:15:44.841Z,94.35
2023-01-08T03:18:30.306Z,94.29
2023-01-08T03:21:09.509Z,94.26
2023-01-08T03:23:48.133Z,94.21
2023-01-08T03:26:32.012Z,94.17
2023-01-08T03:29:13.964Z,94.18
2023-01-08T03:31:50.347Z,94.18
2023-01-08T03:34:31.278Z,94.22
2023-01-08T03:37:12.092Z,94.24
2023-01-08T03:39:58.687Z,94.29
2023-01-08T03:42:36.178Z,94.39
2023-01-08T03:45:14.663Z,94.42
2023-01-08T03:47:53.461Z,94.40
2023-01-08T03:50:34.632Z,94.35
2023-01-08T03:53:12.348Z,94.32
2023-01-08T03:55:48.720Z,94.29
2023-01-08T03:58:25.044Z,94.27
2023-01-08T04:01:01.982Z,94.26
2023-01-08T04:03:38.262Z,94.27
2023-01-08T04:06:14.644Z,94.27
2023-01-08T04:08:53.439Z,94.27
2023-01-08T04:11:29.738Z,94.25
2023-01-08T04:14:06.209Z,94.24
2023-01-08T04:16:42.649Z,94.26
2023-01-08T04:19:19.299Z,94.29
2023-01-08T04:21:57.808Z,94.34
2023-01-08T04:24:34.101Z,94.36
2023-01-08T04:27:10.580Z,94.34
2023-01-08T04:29:46.934Z,94.34
2023-01-08T04:32:23.714Z,94.43
2023-01-08T04:34:59.966Z,94.53
2023-01-08T04:37:36.448Z,94.59
2023-01-08T04:40:15.219Z,94.60
2023-01-08T04:42:51.655Z,94.62
2023-01-08T04:45:28.004Z,94.63
2023-01-08T04:48:04.790Z,94.64
2023-01-08T04:50:41.037Z,94.63
2023-01-08T04:53:17.407Z,94.64
2023-01-08T04:55:53.613Z,94.65
2023-01-08T04:58:29.889Z,94.64
2023-01-08T05:01:12.974Z,94.65
2023-01-08T05:03:49.332Z,94.65
2023-01-08T05:06:25.931Z,94.65
2023-01-08T05:09:02.603Z,94.68
2023-01-08T05:11:38.970Z,94.70
2023-01-08T05:14:15.730Z,94.69
2023-01-08T05:16:52.091Z,94.66
2023-01-08T05:19:28.430Z,94.62
2023-01-08T05:22:04.708Z,94.61
2023-01-08T05:24:41.707Z,94.59
2023-01-08T05:27:18.017Z,94.55
2023-01-08T05:29:54.615Z,94.55
2023-01-08T05:32:30.892Z,94.58
2023-01-08T05:35:08.687Z,94.56
2023-01-08T05:37:44.888Z,94.51
2023-01-08T05:40:21.749Z,94.48
2023-01-08T05:42:59.957Z,94.46
2023-01-08T05:45:36.601Z,94.45
2023-01-08T05:48:13.256Z,94.48
2023-01-08T05:50:51.683Z,94.51
2023-01-08T05:53:28.046Z,94.50
2023-01-08T05:56:09.374Z,94.54
2023-01-08T05:58:45.833Z,94.63
2023-01-08T06:01:22.881Z,94.68
2023-01-08T06:04:00.670Z,94.76
2023-01-08T06:06:37.113Z,94.84
2023-01-08T06:09:14.240Z,94.94
2023-01-08T06:11:50.578Z,94.99
2023-01-08T06:14:27.276Z,94.98
2023-01-08T06:17:03.732Z,95.01
2023-01-08T06:19:40.366Z,95.09
2023-01-08T06:22:16.933Z,95.11
2023-01-08T06:24:53.122Z,95.09
2023-01-08T06:27:29.408Z,95.10
2023-01-08T06:30:06.431Z,95.12
2023-01-08T06:32:42.821Z,95.15
2023-01-08T06:35:19.229Z,95.17
2023-01-08T06:37:57.338Z,95.20
2023-01-08T06:40:33.890Z,95.22
2023-01-08T06:43:10.466Z,95.24
2023-01-08T06:45:47.033Z,95.24
2023-01-08T06:48:23.577Z,95.22
2023-01-08T06:51:02.495Z,95.21
2023-01-08T06:53:39.000Z,95.25
2023-01-08T06:56:15.839Z,95.28
2023-01-08T06:58:52.647Z,95.29
2023-01-08T07:01:29.124Z,95.31
2023-01-08T07:04:05.955Z,95.33
2023-01-08T07:06:42.253Z,95.39
2023-01-08T07:09:19.801Z,95.44
2023-01-08T07:11:55.959Z,95.48
2023-01-08T07:14:32.277Z,95.52
2023-01-08T07:17:08.619Z,95.61
2023-01-08T07:19:45.010Z,95.68
2023-01-08T07:22:22.399Z,95.75
2023-01-08T07:24:58.768Z,95.81
2023-01-08T07:27:35.341Z,95.83
2023-01-08T07:30:28.899Z,95.86
2023-01-08T07:33:06.579Z,95.89
2023-01-08T07:35:43.752Z,95.92
2023-01-08T07:38:20.293Z,95.98
2023-01-08T07:40:58.447Z,96.03
2023-01-08T07:43:35.343Z,96.05
2023-01-08T07:46:11.906Z,96.06
2023-01-08T07:48:48.264Z,96.09
2023-01-08T07:51:24.545Z,96.13
2023-01-08T07:54:00.898Z,96.09
2023-01-08T07:56:37.267Z,96.09
2023-01-08T07:59:13.894Z,96.24
2023-01-08T08:01:50.171Z,96.37
2023-01-08T08:04:26.686Z,96.36
2023-01-08T08:07:03.271Z,96.19
2023-01-08T08:09:40.724Z,95.79
2023-01-08T08:12:17.218Z,95.27
2023-01-08T08:14:53.669Z,94.87
2023-01-08T08:17:30.697Z,94.20
2023-01-08T08:20:08.433Z,93.33
2023-01-08T08:22:45.213Z,92.98
2023-01-08T08:25:22.070Z,92.92
2023-01-08T08:28:01.544Z,92.74
2023-01-08T08:30:42.288Z,92.16
2023-01-08T08:33:18.917Z,91.84
2023-01-08T08:35:58.097Z,91.58
2023-01-08T08:38:34.875Z,91.36
2023-01-08T08:41:11.415Z,91.26
2023-01-08T08:43:49.967Z,91.01
2023-01-08T08:46:26.516Z,90.84
2023-01-08T08:49:02.889Z,90.63
2023-01-08T08:51:39.097Z,88.70
2023-01-08T08:54:16.749Z,87.90
2023-01-08T08:56:53.971Z,86.29
2023-01-08T08:59:30.446Z,86.88
2023-01-08T09:02:07.573Z,87.53
2023-01-08T09:04:44.426Z,87.49
2023-01-08T09:07:20.650Z,87.36
2023-01-08T09:09:57.165Z,87.07
2023-01-08T09:12:34.012Z,86.26
2023-01-08T09:15:13.260Z,86.52
2023-01-08T09:17:55.716Z,86.51
2023-01-08T09:20:32.868Z,85.92
2023-01-08T09:23:09.493Z,85.44
2023-01-08T09:25:47.344Z,85.25
2023-01-08T09:28:24.055Z,84.12
2023-01-08T09:31:04.126Z,83.53
2023-01-08T09:33:40.849Z,84.11
2023-01-08T09:36:19.890Z,84.18
2023-01-08T09:38:56.538Z,84.23
2023-01-08T09:41:38.234Z,83.52
2023-01-08T09:44:23.428Z,83.32
2023-01-08T09:47:01.481Z,83.42
2023-01-08T09:49:44.076Z,82.32
2023-01-08T09:52:20.668Z,82.40
2023-01-08T09:54:57.398Z,82.62
2023-01-08T09:57:34.810Z,82.06
2023-01-08T10:00:22.584Z,82.11
2023-01-08T10:03:00.556Z,81.97
2023-01-08T10:05:37.221Z,81.88
2023-01-08T10:08:18.595Z,81.41
2023-01-08T10:10:55.375Z,81.46
2023-01-08T10:13:32.852Z,81.99
2023-01-08T10:16:18.081Z,82.29
2023-01-08T10:18:54.871Z,82.02
2023-01-08T10:21:41.507Z,81.96
2023-01-08T10:24:19.378Z,82.05
2023-01-08T10:27:06.055Z,82.20
2023-01-08T10:29:42.578Z,81.91
2023-01-08T10:32:24.384Z,82.08
2023-01-08T10:35:07.177Z,82.31
2023-01-08T10:37:47.165Z,82.24
2023-01-08T10:40:38.395Z,82.36
2023-01-08T10:43:22.284Z,82.47
2023-01-08T10:46:08.556Z,82.34
2023-01-08T10:48:56.900Z,82.38
2023-01-08T10:51:35.678Z,82.63
2023-01-08T10:54:41.819Z,82.66
2023-01-08T10:57:31.012Z,82.93
2023-01-08T11:00:22.493Z,82.95
2023-01-08T11:03:02.822Z,83.14
2023-01-08T11:05:43.077Z,82.99
2023-01-08T11:08:23.428Z,83.05
2023-01-08T11:11:03.036Z,82.94
2023-01-08T11:13:39.477Z,82.81
2023-01-08T11:16:15.980Z,82.87
2023-01-08T11:18:54.484Z,82.86
2023-01-08T11:21:36.246Z,82.77
2023-01-08T11:24:26.637Z,82.87
2023-01-08T11:27:11.227Z,83.11
2023-01-08T11:29:59.427Z,83.22
2023-01-08T11:32:50.613Z,83.35
2023-01-08T11:35:32.833Z,83.44
2023-01-08T11:38:14.061Z,83.31
2023-01-08T11:40:56.509Z,83.15
2023-01-08T11:43:48.837Z,83.07
2023-01-08T11:46:43.930Z,82.53
2023-01-08T11:49:57.278Z,82.51
2023-01-08T11:53:02.629Z,82.58
2023-01-08T11:56:09.287Z,82.94
2023-01-08T11:59:10.360Z,82.94
2023-01-08T12:02:09.148Z,82.97
2023-01-08T12:05:31.759Z,82.91
2023-01-08T12:08:42.086Z,82.55
2023-01-08T12:11:29.233Z,82.41
2023-01-08T12:14:40.981Z,82.30
2023-01-08T12:17:52.037Z,82.53
2023-01-08T12:20:44.981Z,82.58
2023-01-08T12:23:51.005Z,82.45
2023-01-08T12:26:40.761Z,82.45
2023-01-08T12:30:07.717Z,82.50
2023-01-08T12:32:48.753Z,82.37
2023-01-08T12:35:33.440Z,82.34
2023-01-08T12:38:20.440Z,82.18
2023-01-08T12:41:06.851Z,82.03
2023-01-08T12:43:56.873Z,81.94
2023-01-08T12:46:38.523Z,81.95
2023-01-08T12:49:23.738Z,81.96
2023-01-08T12:52:13.299Z,81.94
2023-01-08T12:55:00.938Z,81.89
2023-01-08T12:57:48.207Z,81.95
2023-01-08T13:00:38.710Z,81.81
2023-01-08T13:03:26.683Z,81.45
2023-01-08T13:06:19.445Z,81.45
2023-01-08T13:09:01.664Z,81.49
2023-01-08T13:11:42.380Z,81.40
2023-01-08T13:14:19.176Z,81.27
2023-01-08T13:17:16.778Z,81.18
2023-01-08T13:20:03.327Z,81.08
2023-01-08T13:22:42.075Z,80.62
2023-01-08T13:25:37.446Z,80.66
2023-01-08T13:28:46.064Z,80.72
2023-01-08T13:31:42.196Z,80.67
2023-01-08T13:34:42.353Z,80.48
2023-01-08T13:37:28.375Z,80.38
2023-01-08T13:40:07.284Z,80.31
2023-01-08T13:42:46.166Z,80.12
2023-01-08T13:45:28.954Z,80.18
2023-01-08T13:48:06.403Z,80.22
2023-01-08T13:50:48.370Z,80.26
2023-01-08T13:53:26.355Z,80.49
2023-01-08T13:56:08.298Z,80.67
2023-01-08T13:58:55.577Z,80.87
2023-01-08T14:01:32.008Z,81.05
2023-01-08T14:04:08.688Z,81.18
2023-01-08T14:07:20.962Z,81.37
2023-01-08T14:10:11.035Z,81.58
2023-01-08T14:12:48.023Z,81.75
2023-01-08T14:15:30.390Z,81.90
2023-01-08T14:18:08.513Z,82.10
2023-01-08T14:20:50.469Z,82.25
2023-01-08T14:23:33.520Z,82.38
2023-01-08T14:26:19.860Z,82.45
2023-01-08T14:28:59.118Z,82.60
2023-01-08T14:31:35.568Z,82.78
2023-01-08T14:34:14.398Z,82.93
2023-01-08T14:36:53.277Z,83.10
2023-01-08T14:39:38.443Z,83.28
2023-01-08T14:42:38.706Z,83.44
2023-01-08T14:45:27.755Z,83.69
2023-01-08T14:48:14.985Z,83.95
2023-01-08T14:51:05.677Z,84.15
2023-01-08T14:53:46.815Z,84.39
2023-01-08T14:56:31.324Z,84.61
2023-01-08T14:59:13.785Z,84.81
2023-01-08T15:01:58.847Z,84.98
2023-01-08T15:04:35.923Z,85.15
2023-01-08T15:07:30.046Z,85.27
2023-01-08T15:10:20.949Z,85.41
2023-01-08T15:13:06.691Z,85.56
2023-01-08T15:16:01.497Z,85.74
2023-01-08T15:18:45.765Z,85.97
2023-01-08T15:21:27.161Z,86.16
2023-01-08T15:24:06.841Z,86.38
2023-01-08T15:26:47.344Z,86.56
2023-01-08T15:29:33.316Z,86.72
2023-01-08T15:32:28.619Z,86.89
2023-01-08T15:35:14.192Z,87.04
2023-01-08T15:37:50.668Z,87.18
2023-01-08T15:40:27.174Z,87.32
2023-01-08T15:43:12.719Z,87.46
2023-01-08T15:45:52.459Z,87.59
2023-01-08T15:48:29.027Z,87.73
2023-01-08T15:51:07.400Z,87.87
2023-01-08T15:53:43.928Z,88.01
2023-01-08T15:56:20.421Z,88.16
2023-01-08T15:58:56.840Z,88.28
2023-01-08T16:01:34.148Z,88.41
2023-01-08T16:04:11.429Z,88.52
2023-01-08T16:06:49.051Z,88.63
2023-01-08T16:09:26.213Z,88.75
2023-01-08T16:12:02.951Z,88.87
2023-01-08T16:14:39.448Z,88.96
2023-01-08T16:17:15.802Z,89.06
2023-01-08T16:19:52.584Z,89.15
2023-01-08T16:22:29.005Z,89.24
2023-01-08T16:25:05.953Z,89.33
2023-01-08T16:27:43.230Z,89.42
2023-01-08T16:30:21.814Z,89.51
2023-01-08T16:32:58.638Z,89.58
2023-01-08T16:35:35.175Z,89.66
2023-01-08T16:38:13.394Z,89.71
2023-01-08T16:40:50.060Z,89.77
2023-01-08T16:43:27.667Z,89.84
2023-01-08T16:46:04.431Z,89.89
2023-01-08T16:48:41.822Z,89.93
2023-01-08T16:51:18.768Z,90.00
2023-01-08T16:53:55.263Z,90.06
2023-01-08T16:56:31.721Z,90.12
2023-01-08T16:59:18.265Z,90.18
2023-01-08T17:01:59.284Z,90.25
2023-01-08T17:04:36.428Z,90.30
2023-01-08T17:07:15.825Z,90.35
2023-01-08T17:09:52.293Z,90.39
2023-01-08T17:12:29.986Z,90.46
2023-01-08T17:15:08.016Z,90.50
2023-01-08T17:17:44.438Z,90.56
2023-01-08T17:20:21.800Z,90.62
2023-01-08T17:23:01.734Z,90.66
2023-01-08T17:25:42.734Z,90.72
2023-01-08T17:28:20.570Z,90.78
2023-01-08T17:31:02.369Z,90.87
2023-01-08T17:33:39.915Z,90.98
2023-01-08T17:36:19.826Z,90.99
2023-01-08T17:38:56.642Z,91.02
2023-01-08T17:41:51.319Z,91.06
2023-01-08T17:44:28.555Z,91.11
2023-01-08T17:47:05.211Z,91.16
2023-01-08T17:49:41.787Z,91.20
2023-01-08T17:52:18.768Z,91.25
2023-01-08T17:54:56.415Z,91.31
2023-01-08T17:57:32.838Z,91.34
2023-01-08T18:00:12.028Z,91.39
2023-01-08T18:02:48.589Z,91.44
2023-01-08T18:05:25.514Z,91.49
2023-01-08T18:08:02.007Z,91.53
2023-01-08T18:10:40.499Z,91.57
2023-01-08T18:13:17.167Z,91.61
2023-01-08T18:15:53.597Z,91.65
2023-01-08T18:18:30.030Z,91.69
2023-01-08T18:21:07.485Z,91.76
2023-01-08T18:23:44.265Z,91.79
2023-01-08T18:26:22.642Z,91.83
2023-01-08T18:28:59.009Z,91.85
2023-01-08T18:31:35.755Z,92.06
2023-01-08T18:34:13.284Z,92.13
2023-01-08T18:36:50.291Z,92.09
2023-01-08T18:39:29.721Z,92.08
2023-01-08T18:42:24.425Z,92.09
2023-01-08T18:45:03.665Z,92.10
2023-01-08T18:47:40.191Z,92.13
2023-01-08T18:50:18.061Z,92.16
2023-01-08T18:52:54.584Z,92.21
2023-01-08T18:55:31.438Z,92.24
2023-01-08T18:58:07.838Z,92.27
2023-01-08T19:00:44.935Z,92.30
2023-01-08T19:03:21.373Z,92.33
2023-01-08T19:05:57.846Z,92.36
2023-01-08T19:08:34.619Z,92.39
2023-01-08T19:11:12.668Z,92.41
2023-01-08T19:13:50.118Z,92.43
2023-01-08T19:16:26.776Z,92.44
2023-01-08T19:19:03.688Z,92.45
2023-01-08T19:21:40.125Z,92.47
2023-01-08T19:24:17.215Z,92.48
2023-01-08T19:26:53.999Z,92.50
2023-01-08T19:29:30.853Z,92.51
2023-01-08T19:32:09.297Z,92.51
2023-01-08T19:34:47.294Z,92.50
2023-01-08T19:37:23.686Z,92.49
2023-01-08T19:40:01.865Z,92.48
2023-01-08T19:42:56.343Z,92.50
2023-01-08T19:45:33.168Z,92.50
2023-01-08T19:48:10.611Z,92.52
2023-01-08T19:50:48.351Z,92.52
2023-01-08T19:53:24.755Z,92.53
2023-01-08T19:56:05.236Z,92.54
2023-01-08T19:58:42.223Z,92.57
2023-01-08T20:01:22.083Z,92.56
2023-01-08T20:03:59.617Z,92.54
2023-01-08T20:06:36.727Z,92.52
2023-01-08T20:09:13.373Z,92.51
2023-01-08T20:11:49.937Z,92.50
2023-01-08T20:14:26.500Z,92.47
2023-01-08T20:17:03.685Z,92.44
2023-01-08T20:19:40.575Z,92.49
2023-01-08T20:22:16.910Z,92.50
2023-01-08T20:24:53.890Z,92.52
2023-01-08T20:27:30.320Z,92.57
2023-01-08T20:30:08.672Z,92.62
2023-01-08T20:32:45.367Z,92.66
2023-01-08T20:35:22.306Z,92.71
2023-01-08T20:37:59.837Z,92.78
2023-01-08T20:40:39.181Z,92.79
2023-01-08T20:43:15.592Z,92.84
2023-01-08T20:45:52.284Z,92.90
2023-01-08T20:48:32.041Z,92.96
2023-01-08T20:51:13.504Z,93.11
2023-01-08T20:53:49.988Z,93.20
2023-01-08T20:56:26.720Z,93.21
2023-01-08T20:59:05.687Z,93.22
2023-01-08T21:01:42.308Z,93.27
2023-01-08T21:04:18.877Z,93.39
2023-01-08T21:06:55.503Z,93.48
2023-01-08T21:09:32.070Z,93.47
2023-01-08T21:12:09.149Z,93.54
2023-01-08T21:14:45.981Z,93.60
2023-01-08T21:17:22.303Z,93.60
2023-01-08T21:19:58.542Z,93.62
2023-01-08T21:22:35.197Z,93.69
2023-01-08T21:25:13.790Z,93.81
2023-01-08T21:27:50.171Z,93.84
2023-01-08T21:30:26.826Z,93.85
2023-01-08T21:33:03.311Z,93.89
2023-01-08T21:35:40.823Z,93.99
2023-01-08T21:38:17.586Z,94.03
2023-01-08T21:41:03.236Z,94.04
2023-01-08T21:43:57.837Z,94.05
2023-01-08T21:46:34.219Z,94.07
2023-01-08T21:49:10.673Z,94.10
2023-01-08T21:52:04.745Z,94.11
2023-01-08T21:54:41.373Z,94.12
2023-01-08T21:57:18.089Z,94.11
2023-01-08T21:59:56.677Z,94.11
2023-01-08T22:02:33.039Z,94.12
2023-01-08T22:05:10.949Z,94.12
2023-01-08T22:07:47.199Z,94.10
2023-01-08T22:10:24.035Z,94.05
2023-01-08T22:13:00.379Z,94.03
2023-01-08T22:15:36.973Z,94.02
2023-01-08T22:18:13.319Z,94.06
2023-01-08T22:20:49.684Z,94.13
2023-01-08T22:23:26.164Z,94.12
2023-01-08T22:26:04.537Z,94.09
2023-01-08T22:28:41.655Z,94.07
2023-01-08T22:31:19.805Z,94.06
2023-01-08T22:33:59.571Z,94.09
2023-01-08T22:36:35.934Z,94.13
2023-01-08T22:39:17.842Z,94.18
2023-01-08T22:41:53.371Z,94.16
2023-01-08T22:44:29.986Z,94.14
2023-01-08T22:47:08.622Z,94.13
2023-01-08T22:49:45.372Z,94.12
2023-01-08T22:52:22.071Z,94.15
2023-01-08T22:55:00.230Z,94.15
2023-01-08T22:57:36.611Z,94.12
2023-01-08T23:00:17.714Z,94.08
2023-01-08T23:02:54.300Z,94.03
2023-01-08T23:05:31.204Z,93.99
2023-01-08T23:08:09.043Z,93.96
2023-01-08T23:10:45.605Z,93.92
2023-01-08T23:13:22.075Z,93.87
2023-01-08T23:15:59.449Z,93.81
2023-01-08T23:18:36.059Z,93.78
2023-01-08T23:21:16.963Z,93.73
2023-01-08T23:23:53.757Z,93.64
2023-01-08T23:26:32.768Z,93.58
2023-01-08T23:29:09.622Z,93.52
2023-01-08T23:31:46.050Z,93.48
2023-01-08T23:34:22.423Z,93.39
2023-01-08T23:36:58.674Z,93.35
2023-01-08T23:39:34.943Z,93.33
2023-01-08T23:42:11.494Z,93.30
2023-01-08T23:44:50.033Z,93.24
2023-01-08T23:47:26.396Z,93.17
2023-01-08T23:50:02.742Z,93.11
2023-01-08T23:52:39.033Z,93.05
2023-01-08T23:55:16.178Z,92.99
2023-01-08T23:57:53.088Z,92.97
